Flight Track Log - Related Links

Times and Time Zones

All times are in EDT time to prevent confusion due to time zone crossing. See the N775NC flight status page for this flight to view local times or setup timezone preferences in your user account.


Time Position Orientation Groundspeed Altitude Reporting Facility
EDT Latitude Longitude Course Direction KTS MPH feet Rate Location/Type
Sun 09:18:39 PM 33.6500 -84.3833 North 164 189 2,400  Level Atlanta TRACON
Sun 09:19:39 PM 33.6667 -84.3167 73° East 249 287 4,100 2,200 Climbing Atlanta TRACON
Sun 09:20:39 PM 33.7167 -84.2500 48° Northeast 264 304 6,800 2,300 Climbing Atlanta TRACON
Sun 09:21:00 PM 33.9938 -84.1825 24° Northeast  Level Estimated
Sun 09:21:39 PM 33.7833 -84.2667 348° North 281 323 8,700  Level Atlanta TRACON
Sun 09:22:00 PM 34.0957 -84.1659 North  Level FlightAware Approximate
Sun 09:23:00 PM 34.1976 -84.1493 North  Level FlightAware Approximate
Sun 09:23:53 PM 33.9797 -84.2969 353° North 324 373 13,000  Level Atlanta Center
Sun 09:24:00 PM 34.2995 -84.1327 North  Level FlightAware Approximate
Sun 09:24:53 PM 34.0694 -84.2719 13° North 331 381 15,000  Level Atlanta Center
Sun 09:25:53 PM 34.1739 -84.2422 13° North 342 394 16,700 1,750 Climbing Atlanta Center
Sun 09:26:53 PM 34.2764 -84.2097 15° North 373 429 18,500 1,800 Climbing Atlanta Center
Sun 09:27:53 PM 34.3764 -84.1697 18° North 382 440 20,300 1,500 Climbing Atlanta Center
Sun 09:28:53 PM 34.4664 -84.1269 21° North 388 447 21,500 1,350 Climbing Atlanta Center
Sun 09:29:53 PM 34.5728 -84.0767 21° North 393 452 23,000 750 Climbing Atlanta Center
Sun 09:30:53 PM 34.6917 -84.0236 20° North 406 467 23,000  Level Atlanta Center
Sun 09:31:53 PM 34.8086 -83.9628 23° Northeast 424 488 23,000  Level Atlanta Center
Sun 09:32:53 PM 34.9275 -83.9172 17° North 437 503 23,000  Level Atlanta Center
Sun 09:33:53 PM 35.0253 -83.8206 39° Northeast 442 509 23,000  Level Atlanta Center
Sun 09:34:53 PM 35.1150 -83.7189 43° Northeast 442 509 23,000  Level Atlanta Center
Sun 09:35:53 PM 35.2064 -83.6142 43° Northeast 442 509 23,000  Level Atlanta Center
Sun 09:36:53 PM 35.3000 -83.5144 41° Northeast 442 509 23,000 -350 Level Atlanta Center
Sun 09:37:53 PM 35.3953 -83.4172 40° Northeast 437 503 22,300 -900 Descending Atlanta Center
Sun 09:38:53 PM 35.4908 -83.3244 38° Northeast 437 503 21,200 -1,400 Descending Atlanta Center
Sun 09:39:53 PM 35.5883 -83.2344 37° Northeast 437 503 19,500 -2,100 Descending Atlanta Center
Sun 09:40:53 PM 35.6839 -83.1542 34° Northeast 429 494 17,000 -1,800 Descending Atlanta Center
Sun 09:41:53 PM 35.7769 -83.0686 37° Northeast 417 480 15,900 -2,000 Descending Atlanta Center
Sun 09:42:53 PM 35.8514 -82.9703 47° Northeast 396 456 13,000 -2,200 Descending Atlanta Center
Sun 09:43:53 PM 35.9256 -82.8847 43° Northeast 373 429 11,500 -1,000 Descending Atlanta Center
Sun 09:44:53 PM 35.9914 -82.7914 49° Northeast 362 417 11,000 -250 Descending Atlanta Center
Sun 09:45:53 PM 36.0489 -82.7108 49° Northeast 327 376 11,000 -700 Level Atlanta Center
Sun 09:46:53 PM 36.1044 -82.6381 47° Northeast 296 341 9,600 -1,500 Descending Atlanta Center
Sun 09:47:53 PM 36.1536 -82.5678 49° Northeast 278 320 8,000 -1,300 Descending Atlanta Center
Sun 09:48:53 PM 36.2094 -82.5153 37° Northeast 258 297 7,000 -650 Descending Atlanta Center
Sun 09:49:53 PM 36.2714 -82.4653 33° Northeast 253 291 6,700 -650 Descending Atlanta Center
Sun 09:50:53 PM 36.3292 -82.4178 34° Northeast 253 291 5,700 -1,150 Descending Atlanta Center
Sun 09:51:53 PM 36.3889 -82.3728 31° Northeast 253 291 4,400 -1,300 Descending Atlanta Center
Sun 09:53:00 PM 36.4667 -82.4000 270° West  Level FlightAware Approximate

Login

Don't have an account? Register now (free) for customized features, flight alerts, and more!